Time;durP1;ratioP1;P1;durP2;ratioP2;P2;SDS_P1;SDS_P2;PMS_P1;PMS_P2;Temp;Humidity;BMP_temperature;BMP_pressure;BME280_temperature;BME280_humidity;BME280_pressure;Samples;Min_cycle;Max_cycle;Signal;HPM_P1;HPM_P2
2023/12/06 00:00:38;;;;;;;14.37;13.87;;;6.80;99.90;;;;;;5072036;28;20215;-66
2023/12/06 00:03:04;;;;;;;14.03;13.53;;;6.80;99.90;;;;;;5073523;28;20209;-64
2023/12/06 00:05:33;;;;;;;14.47;13.97;;;6.70;99.90;;;;;;5070927;28;20242;-66
2023/12/06 00:07:59;;;;;;;13.60;13.10;;;6.70;99.90;;;;;;5071435;28;20211;-67
2023/12/06 00:10:26;;;;;;;13.77;13.27;;;6.70;99.90;;;;;;5073095;28;20207;-66
2023/12/06 00:12:53;;;;;;;14.03;13.53;;;6.70;99.90;;;;;;5072792;28;20214;-65
2023/12/06 00:15:19;;;;;;;15.10;14.50;;;6.70;99.90;;;;;;5071804;28;20741;-67
2023/12/06 00:17:46;;;;;;;14.03;13.53;;;6.70;99.90;;;;;;5072148;28;20218;-65
2023/12/06 00:20:13;;;;;;;13.90;13.40;;;6.70;99.90;;;;;;5071245;28;20207;-67
2023/12/06 00:22:41;;;;;;;13.67;13.17;;;6.70;99.90;;;;;;5071156;28;20207;-66
2023/12/06 00:25:08;;;;;;;14.30;13.80;;;6.70;99.90;;;;;;5070427;28;20550;-67
2023/12/06 00:27:35;;;;;;;13.60;13.10;;;6.70;99.90;;;;;;5074534;28;20264;-68
2023/12/06 00:30:02;;;;;;;14.50;14.00;;;6.70;99.90;;;;;;5074949;28;20218;-67
2023/12/06 00:32:28;;;;;;;13.53;13.03;;;6.70;99.90;;;;;;5075113;28;20585;-65
2023/12/06 00:34:55;;;;;;;14.00;13.50;;;6.70;99.90;;;;;;5077693;28;20203;-67
2023/12/06 00:37:22;;;;;;;13.30;12.80;;;6.70;99.90;;;;;;5081162;28;20299;-67
2023/12/06 00:39:50;;;;;;;14.90;14.40;;;6.70;99.90;;;;;;5081479;28;20202;-68
2023/12/06 00:42:16;;;;;;;13.90;13.40;;;6.70;99.90;;;;;;5080883;28;20214;-66
2023/12/06 00:44:43;;;;;;;14.30;13.80;;;6.70;99.90;;;;;;5080891;28;20234;-67
2023/12/06 00:47:10;;;;;;;14.48;13.98;;;6.70;99.90;;;;;;5080722;28;20223;-67
2023/12/06 00:49:37;;;;;;;14.13;13.63;;;6.80;99.90;;;;;;5081099;28;20211;-67
2023/12/06 00:52:04;;;;;;;13.80;13.30;;;6.70;99.90;;;;;;5081690;28;20584;-69
2023/12/06 00:54:30;;;;;;;14.23;13.73;;;6.80;99.90;;;;;;5080548;28;20207;-66
2023/12/06 00:56:58;;;;;;;13.20;12.70;;;6.80;99.90;;;;;;5075421;28;20242;-68
2023/12/06 00:59:25;;;;;;;14.00;13.50;;;6.90;99.90;;;;;;5080929;28;20234;-67
2023/12/06 01:01:52;;;;;;;13.60;13.10;;;6.90;99.90;;;;;;5081184;28;20250;-65
2023/12/06 01:04:19;;;;;;;13.97;13.47;;;6.90;99.90;;;;;;5080222;28;20219;-68
2023/12/06 01:06:45;;;;;;;12.70;12.30;;;6.90;99.90;;;;;;5079484;28;20235;-67
2023/12/06 01:09:12;;;;;;;12.83;12.33;;;7.00;99.90;;;;;;5073618;28;20215;-67
2023/12/06 01:11:39;;;;;;;13.50;13.00;;;6.90;99.90;;;;;;5074254;28;20659;-66
2023/12/06 01:14:07;;;;;;;13.20;12.70;;;6.90;99.90;;;;;;5074668;28;20211;-66
2023/12/06 01:16:34;;;;;;;12.83;12.43;;;7.00;99.90;;;;;;5074153;28;20510;-66
2023/12/06 01:19:00;;;;;;;13.50;13.00;;;6.90;99.90;;;;;;5073897;28;20222;-66
2023/12/06 01:21:27;;;;;;;13.17;12.67;;;6.90;99.90;;;;;;5074114;28;20211;-66
2023/12/06 01:23:54;;;;;;;13.50;13.00;;;7.00;99.90;;;;;;5073542;28;20216;-66
2023/12/06 01:26:21;;;;;;;12.77;12.37;;;7.00;99.90;;;;;;5073438;28;20231;-68
2023/12/06 01:28:48;;;;;;;13.00;12.60;;;6.90;99.90;;;;;;5073414;28;20214;-67
2023/12/06 01:31:16;;;;;;;12.50;12.00;;;6.90;99.90;;;;;;5073538;28;20215;-66
2023/12/06 01:33:42;;;;;;;12.93;12.53;;;7.00;99.90;;;;;;5073620;28;20218;-68
2023/12/06 01:36:09;;;;;;;13.23;12.73;;;7.00;99.90;;;;;;5073797;28;20227;-66
2023/12/06 01:38:36;;;;;;;12.17;11.77;;;7.00;99.90;;;;;;5073037;28;20218;-69
2023/12/06 01:41:03;;;;;;;12.87;12.47;;;7.00;99.90;;;;;;5080649;28;20218;-67
2023/12/06 01:43:30;;;;;;;13.17;12.67;;;7.00;99.90;;;;;;5083420;28;20203;-67
2023/12/06 01:45:56;;;;;;;12.57;12.17;;;7.00;99.90;;;;;;5081950;28;20296;-67
2023/12/06 01:48:25;;;;;;;11.77;11.37;;;7.00;99.90;;;;;;5082504;28;20215;-66
2023/12/06 01:50:53;;;;;;;12.50;12.10;;;6.90;99.90;;;;;;5082028;28;20219;-66
2023/12/06 01:53:19;;;;;;;11.40;11.00;;;7.00;99.90;;;;;;5082710;28;20215;-67
2023/12/06 01:55:46;;;;;;;12.23;11.83;;;7.00;99.90;;;;;;5091794;28;20227;-67
2023/12/06 01:58:13;;;;;;;13.67;13.17;;;7.00;99.90;;;;;;5091894;28;20233;-66
2023/12/06 02:00:41;;;;;;;12.03;11.63;;;7.00;99.90;;;;;;5091712;28;20650;-68
2023/12/06 02:03:08;;;;;;;11.83;11.43;;;7.00;99.90;;;;;;5093601;28;20282;-66
2023/12/06 02:05:36;;;;;;;12.67;12.27;;;7.00;99.90;;;;;;5091994;28;20231;-67
2023/12/06 02:08:04;;;;;;;12.70;12.30;;;7.00;99.90;;;;;;5090945;28;20203;-67
2023/12/06 02:10:30;;;;;;;12.50;12.10;;;7.10;99.90;;;;;;5078973;28;20306;-67
2023/12/06 02:12:57;;;;;;;12.70;12.30;;;7.00;99.90;;;;;;5073255;28;20214;-66
2023/12/06 02:15:24;;;;;;;12.47;12.07;;;7.00;99.90;;;;;;5073139;28;20227;-67
2023/12/06 02:17:52;;;;;;;12.13;11.73;;;7.10;99.90;;;;;;5072887;28;20211;-64
2023/12/06 02:20:19;;;;;;;13.07;12.60;;;7.00;99.90;;;;;;5072513;28;20210;-68
2023/12/06 02:22:49;;;;;;;14.63;14.13;;;7.00;99.90;;;;;;5073055;28;20233;-65
2023/12/06 02:25:17;;;;;;;13.70;13.20;;;7.00;99.90;;;;;;5072744;28;20280;-65
2023/12/06 02:27:45;;;;;;;12.33;11.93;;;7.00;99.90;;;;;;5074628;28;20214;-66
2023/12/06 02:30:13;;;;;;;12.17;11.77;;;7.00;99.90;;;;;;5075957;28;20203;-66
2023/12/06 02:32:40;;;;;;;12.77;12.37;;;7.00;99.90;;;;;;5074982;28;20210;-66
2023/12/06 02:35:15;;;;;;;12.77;12.37;;;7.10;99.90;;;;;;5076044;28;20218;-67
2023/12/06 02:37:43;;;;;;;12.73;12.33;;;7.00;99.90;;;;;;5076663;28;20214;-67
2023/12/06 02:40:13;;;;;;;13.83;13.33;;;7.00;99.90;;;;;;5072488;28;20207;-66
2023/12/06 02:42:41;;;;;;;12.97;12.57;;;7.10;99.90;;;;;;5072673;28;20211;-67
2023/12/06 02:45:08;;;;;;;13.97;13.47;;;7.10;99.90;;;;;;5071695;28;20235;-68
2023/12/06 02:47:35;;;;;;;12.97;12.57;;;7.10;99.90;;;;;;5072238;28;20211;-67
2023/12/06 02:50:02;;;;;;;12.60;12.20;;;7.00;99.90;;;;;;5072103;28;20585;-67
2023/12/06 02:52:29;;;;;;;13.50;13.00;;;7.00;99.90;;;;;;5072077;28;20219;-66
2023/12/06 02:54:55;;;;;;;12.80;12.40;;;7.10;99.90;;;;;;5071733;28;20585;-67
2023/12/06 02:57:22;;;;;;;13.67;13.17;;;7.10;99.90;;;;;;5071671;28;20248;-66
2023/12/06 02:59:50;;;;;;;12.33;11.93;;;7.10;99.90;;;;;;5071735;28;20207;-65
2023/12/06 03:02:17;;;;;;;13.70;13.20;;;7.10;99.90;;;;;;5071848;28;20230;-68
2023/12/06 03:04:43;;;;;;;13.87;13.37;;;7.10;99.90;;;;;;5071830;28;20215;-66
2023/12/06 03:07:10;;;;;;;14.00;13.50;;;7.00;99.90;;;;;;5071270;28;20230;-66
2023/12/06 03:09:37;;;;;;;14.70;14.20;;;7.10;99.90;;;;;;5071509;28;20214;-66
2023/12/06 03:12:06;;;;;;;15.20;14.70;;;7.00;99.90;;;;;;5071518;28;20208;-66
2023/12/06 03:14:33;;;;;;;14.13;13.63;;;7.10;99.90;;;;;;5071246;28;20214;-68
2023/12/06 03:17:01;;;;;;;14.87;14.37;;;7.10;99.90;;;;;;5071445;28;20230;-66
2023/12/06 03:19:28;;;;;;;14.47;13.97;;;7.00;99.90;;;;;;5071030;28;20211;-66
2023/12/06 03:21:54;;;;;;;14.37;13.87;;;7.00;99.90;;;;;;5070853;28;20214;-68
2023/12/06 03:24:21;;;;;;;14.03;13.53;;;6.90;99.90;;;;;;5071229;28;20203;-66
2023/12/06 03:26:47;;;;;;;14.70;14.20;;;7.00;99.90;;;;;;5070575;28;20228;-68
2023/12/06 03:29:14;;;;;;;14.40;13.90;;;6.90;99.90;;;;;;5070848;28;20570;-68
2023/12/06 03:31:41;;;;;;;14.20;13.70;;;6.90;99.90;;;;;;5070885;28;20214;-67
2023/12/06 03:34:09;;;;;;;15.17;14.67;;;6.90;99.90;;;;;;5071171;28;20218;-67
2023/12/06 03:36:36;;;;;;;15.03;14.53;;;6.80;99.90;;;;;;5071114;28;20400;-68
2023/12/06 03:39:03;;;;;;;14.23;13.73;;;6.90;99.90;;;;;;5071302;28;20238;-67
2023/12/06 03:41:29;;;;;;;14.33;13.83;;;6.90;99.90;;;;;;5071112;28;20593;-67
2023/12/06 03:43:56;;;;;;;14.80;14.30;;;6.90;99.90;;;;;;5070948;28;20211;-68
2023/12/06 03:46:23;;;;;;;14.07;13.57;;;6.90;99.90;;;;;;5070930;28;20231;-67
2023/12/06 03:48:49;;;;;;;13.40;12.90;;;6.90;99.90;;;;;;5070959;28;20212;-68
2023/12/06 03:51:17;;;;;;;13.67;13.17;;;6.90;99.90;;;;;;5071405;28;20204;-67
2023/12/06 03:53:44;;;;;;;14.20;13.70;;;7.00;99.90;;;;;;5070796;28;20219;-67
2023/12/06 03:56:11;;;;;;;14.00;13.50;;;7.00;99.90;;;;;;5071194;28;20223;-67
2023/12/06 03:58:38;;;;;;;14.20;13.70;;;7.00;99.90;;;;;;5070850;28;20257;-67
2023/12/06 04:01:04;;;;;;;12.90;12.50;;;7.00;99.90;;;;;;5071452;28;20207;-67
2023/12/06 04:03:31;;;;;;;13.90;13.40;;;7.00;99.90;;;;;;5066053;28;20212;-69
2023/12/06 04:05:58;;;;;;;14.20;13.70;;;7.00;99.90;;;;;;5069687;28;20604;-68
2023/12/06 04:08:26;;;;;;;12.77;12.30;;;7.00;99.90;;;;;;5074572;28;20211;-66
2023/12/06 04:10:53;;;;;;;12.53;12.13;;;7.10;99.90;;;;;;5076077;28;20214;-68
2023/12/06 04:13:19;;;;;;;13.30;12.87;;;7.10;99.90;;;;;;5072661;28;20707;-66
2023/12/06 04:15:46;;;;;;;14.67;14.17;;;7.10;99.90;;;;;;5072075;28;20223;-67
2023/12/06 04:18:13;;;;;;;13.70;13.20;;;7.00;99.90;;;;;;5071442;28;20235;-68
2023/12/06 04:20:40;;;;;;;13.03;12.63;;;7.00;99.90;;;;;;5072972;28;20215;-67
2023/12/06 04:23:06;;;;;;;13.17;12.70;;;7.00;99.90;;;;;;5071379;28;20268;-68
2023/12/06 04:25:34;;;;;;;13.20;12.70;;;7.10;99.90;;;;;;5070725;28;20242;-67
2023/12/06 04:28:01;;;;;;;14.10;13.60;;;7.00;99.90;;;;;;5071038;28;20218;-69
2023/12/06 04:30:28;;;;;;;13.97;13.47;;;7.00;99.90;;;;;;5071807;28;20577;-66
2023/12/06 04:32:54;;;;;;;13.57;13.07;;;7.00;99.90;;;;;;5070502;28;20215;-66
2023/12/06 04:35:21;;;;;;;13.93;13.43;;;7.00;99.90;;;;;;5070550;28;20223;-66
2023/12/06 04:37:48;;;;;;;13.60;13.10;;;7.00;99.90;;;;;;5070394;28;20237;-65
2023/12/06 04:40:14;;;;;;;13.30;12.80;;;7.00;99.90;;;;;;5070241;28;20218;-66
2023/12/06 04:42:42;;;;;;;13.63;13.13;;;7.00;99.90;;;;;;5070663;28;20207;-67
2023/12/06 04:45:10;;;;;;;13.97;13.47;;;7.00;99.90;;;;;;5070473;28;20661;-67
2023/12/06 04:47:37;;;;;;;14.33;13.83;;;7.00;99.90;;;;;;5070999;28;20231;-66
2023/12/06 04:50:04;;;;;;;14.27;13.77;;;7.00;99.90;;;;;;5070476;28;20215;-66
2023/12/06 04:52:31;;;;;;;13.93;13.43;;;7.00;99.90;;;;;;5070830;28;20308;-67
2023/12/06 04:54:57;;;;;;;12.80;12.33;;;7.00;99.90;;;;;;5070673;28;20207;-67
2023/12/06 04:57:24;;;;;;;13.20;12.70;;;7.00;99.90;;;;;;5071912;28;20288;-68
2023/12/06 04:59:52;;;;;;;13.90;13.40;;;7.00;99.90;;;;;;5076916;28;20204;-67
2023/12/06 05:02:19;;;;;;;13.73;13.23;;;7.00;99.90;;;;;;5071536;28;20215;-67
2023/12/06 05:04:46;;;;;;;13.30;12.80;;;7.00;99.90;;;;;;5080926;28;20203;-67
2023/12/06 05:07:12;;;;;;;13.77;13.27;;;7.00;99.90;;;;;;5074937;28;20242;-67
2023/12/06 05:09:39;;;;;;;14.53;14.03;;;7.00;99.90;;;;;;5073039;28;20207;-67
2023/12/06 05:12:06;;;;;;;14.73;14.23;;;7.00;99.90;;;;;;5071581;28;20210;-67
2023/12/06 05:14:33;;;;;;;15.27;14.77;;;7.00;99.90;;;;;;5075457;28;20215;-65
2023/12/06 05:17:01;;;;;;;14.80;14.30;;;6.90;99.90;;;;;;5075960;28;20255;-66
2023/12/06 05:19:28;;;;;;;14.90;14.40;;;6.90;99.90;;;;;;5075488;28;20211;-67
2023/12/06 05:21:54;;;;;;;15.80;15.20;;;6.90;99.90;;;;;;5075490;28;20210;-67
2023/12/06 05:24:21;;;;;;;15.20;14.70;;;6.90;99.90;;;;;;5075406;28;20211;-67
2023/12/06 05:26:48;;;;;;;15.53;14.93;;;6.90;99.90;;;;;;5075433;28;20705;-67
2023/12/06 05:29:15;;;;;;;14.97;14.47;;;6.90;99.90;;;;;;5075203;28;20206;-67
2023/12/06 05:31:41;;;;;;;14.70;14.20;;;6.90;99.90;;;;;;5074827;28;20234;-67
2023/12/06 05:34:09;;;;;;;14.93;14.33;;;6.90;99.90;;;;;;5074142;28;20214;-70
2023/12/06 05:36:36;;;;;;;13.93;13.43;;;6.90;99.90;;;;;;5074396;28;20234;-67
2023/12/06 05:39:05;;;;;;;14.73;14.23;;;6.90;99.90;;;;;;5073417;28;20234;-67
2023/12/06 05:41:31;;;;;;;14.63;14.13;;;7.00;99.90;;;;;;5073548;28;20211;-67
2023/12/06 05:43:58;;;;;;;16.23;15.63;;;7.00;99.90;;;;;;5073341;28;20593;-67
2023/12/06 05:46:25;;;;;;;14.93;14.43;;;7.00;99.90;;;;;;5073213;28;20234;-66
2023/12/06 05:48:51;;;;;;;14.40;13.90;;;7.00;99.90;;;;;;5072975;28;20642;-63
2023/12/06 05:51:20;;;;;;;14.40;13.90;;;7.00;99.90;;;;;;5073284;28;20218;-66
2023/12/06 05:53:46;;;;;;;14.27;13.77;;;7.00;99.90;;;;;;5073066;28;20250;-67
2023/12/06 05:56:13;;;;;;;14.67;14.17;;;7.00;99.90;;;;;;5073850;28;20230;-67
2023/12/06 05:58:40;;;;;;;15.57;14.90;;;6.80;99.90;;;;;;5073820;28;20203;-66
2023/12/06 06:01:07;;;;;;;15.13;14.53;;;7.00;99.90;;;;;;5073420;28;20207;-67
2023/12/06 06:03:34;;;;;;;16.17;15.57;;;7.00;99.90;;;;;;5073872;28;20320;-68
2023/12/06 06:06:05;;;;;;;14.63;14.13;;;6.90;99.90;;;;;;5073445;28;20238;-66
2023/12/06 06:08:34;;;;;;;15.63;15.07;;;6.90;99.90;;;;;;5075489;28;20227;-64
2023/12/06 06:11:01;;;;;;;14.17;13.67;;;7.00;99.90;;;;;;5076179;28;20211;-67
2023/12/06 06:13:29;;;;;;;13.70;13.20;;;6.90;99.90;;;;;;5076146;28;20584;-67
2023/12/06 06:15:55;;;;;;;14.37;13.77;;;6.90;99.90;;;;;;5079299;28;20234;-66
2023/12/06 06:18:22;;;;;;;14.13;13.63;;;7.00;99.90;;;;;;5079006;28;20211;-68
2023/12/06 06:20:49;;;;;;;13.90;13.40;;;7.00;99.90;;;;;;5077501;28;20573;-66
2023/12/06 06:23:16;;;;;;;13.50;13.00;;;7.00;99.90;;;;;;5077394;28;20237;-66
2023/12/06 06:25:44;;;;;;;13.70;13.20;;;7.00;99.90;;;;;;5078567;28;20232;-66
2023/12/06 06:28:10;;;;;;;13.73;13.23;;;7.00;99.90;;;;;;5074327;28;20226;-68
2023/12/06 06:30:37;;;;;;;14.63;14.13;;;7.00;99.90;;;;;;5073402;28;20215;-68
2023/12/06 06:33:04;;;;;;;14.37;13.87;;;7.00;99.90;;;;;;5073174;28;20215;-67
2023/12/06 06:35:31;;;;;;;14.03;13.53;;;7.00;99.90;;;;;;5073016;28;20288;-66
2023/12/06 06:37:58;;;;;;;13.47;12.97;;;7.10;99.90;;;;;;5073095;28;20245;-67
2023/12/06 06:40:24;;;;;;;14.60;14.03;;;7.10;99.90;;;;;;5073986;28;20696;-68
2023/12/06 06:42:54;;;;;;;13.93;13.43;;;7.10;99.90;;;;;;5075956;28;20219;-67
2023/12/06 06:45:21;;;;;;;14.63;14.03;;;7.10;99.90;;;;;;5076477;28;20782;-66
2023/12/06 06:47:49;;;;;;;16.00;15.40;;;7.00;99.90;;;;;;5076377;28;20314;-66
2023/12/06 06:50:16;;;;;;;15.30;14.70;;;7.00;99.90;;;;;;5075463;28;20211;-67
2023/12/06 06:52:43;;;;;;;13.90;13.40;;;6.90;99.90;;;;;;5072844;28;20219;-66
2023/12/06 06:55:09;;;;;;;15.30;14.70;;;6.90;99.90;;;;;;5072119;28;20219;-67
2023/12/06 06:57:37;;;;;;;14.10;13.60;;;6.80;99.90;;;;;;5072506;28;20678;-68
2023/12/06 07:00:09;;;;;;;15.40;14.80;;;6.90;99.90;;;;;;5071832;28;20211;-69
2023/12/06 07:02:38;;;;;;;14.57;14.07;;;6.90;99.90;;;;;;5071638;28;20586;-68
2023/12/06 07:05:06;;;;;;;15.13;14.53;;;6.90;99.90;;;;;;5072396;28;20670;-66
2023/12/06 07:07:32;;;;;;;15.47;14.87;;;6.80;99.90;;;;;;5073128;28;20613;-67
2023/12/06 07:10:04;;;;;;;15.10;14.50;;;6.80;99.90;;;;;;5073194;28;20204;-66
2023/12/06 07:12:32;;;;;;;16.83;16.23;;;6.80;99.90;;;;;;5072465;28;20218;-68
2023/12/06 07:14:58;;;;;;;17.30;16.60;;;6.70;99.90;;;;;;5074537;28;20207;-65
2023/12/06 07:17:26;;;;;;;16.67;16.07;;;6.70;99.90;;;;;;5074657;28;20234;-68
2023/12/06 07:19:54;;;;;;;15.67;15.07;;;6.60;99.90;;;;;;5073871;28;20721;-66
2023/12/06 07:22:21;;;;;;;16.20;15.60;;;6.60;99.90;;;;;;5072692;28;20295;-67
2023/12/06 07:24:47;;;;;;;16.40;15.80;;;6.50;99.90;;;;;;5071755;28;20238;-68
2023/12/06 07:27:14;;;;;;;16.80;16.10;;;6.50;99.90;;;;;;5071317;28;20231;-71
2023/12/06 07:29:42;;;;;;;16.10;15.40;;;6.50;99.90;;;;;;5072697;28;20685;-68
2023/12/06 07:32:09;;;;;;;15.70;15.10;;;6.40;99.90;;;;;;5072845;28;20207;-68
2023/12/06 07:34:37;;;;;;;15.13;14.53;;;6.40;99.90;;;;;;5072537;28;20203;-68
2023/12/06 07:37:04;;;;;;;16.77;16.17;;;6.30;99.90;;;;;;5072778;28;20227;-66
2023/12/06 07:39:31;;;;;;;15.77;15.17;;;6.40;99.90;;;;;;5072492;28;20210;-67
2023/12/06 07:41:57;;;;;;;15.87;15.27;;;6.40;99.90;;;;;;5072430;28;20214;-68
2023/12/06 07:44:24;;;;;;;17.03;16.23;;;6.40;99.90;;;;;;5072228;28;20203;-67
2023/12/06 07:46:51;;;;;;;17.33;16.63;;;6.40;99.90;;;;;;5072531;28;20231;-70
2023/12/06 07:49:17;;;;;;;15.47;14.87;;;6.40;99.90;;;;;;5064262;28;20595;-67
2023/12/06 07:51:46;;;;;;;15.57;14.97;;;6.40;99.90;;;;;;5072771;28;20287;-66
2023/12/06 07:54:14;;;;;;;16.20;15.60;;;6.40;99.90;;;;;;5072521;28;20617;-66
2023/12/06 07:56:42;;;;;;;16.20;15.50;;;6.40;99.90;;;;;;5072179;28;20235;-67
2023/12/06 07:59:10;;;;;;;15.87;15.27;;;6.40;99.90;;;;;;5071784;28;20622;-69
2023/12/06 08:01:36;;;;;;;16.27;15.67;;;6.30;99.90;;;;;;5071853;28;20583;-66
2023/12/06 08:04:03;;;;;;;17.33;16.63;;;6.30;99.90;;;;;;5071509;28;20707;-68
2023/12/06 08:06:30;;;;;;;16.40;15.80;;;6.30;99.90;;;;;;5071887;28;20234;-68
2023/12/06 08:08:58;;;;;;;16.47;15.87;;;6.30;99.90;;;;;;5071648;28;20206;-67
2023/12/06 08:11:25;;;;;;;16.83;16.13;;;6.40;99.90;;;;;;5071790;28;20207;-68
2023/12/06 08:13:52;;;;;;;16.67;16.07;;;6.40;99.90;;;;;;5072280;28;20211;-66
2023/12/06 08:16:19;;;;;;;15.90;15.30;;;6.40;99.90;;;;;;5072411;28;20227;-66
2023/12/06 08:18:45;;;;;;;15.40;14.80;;;6.40;99.90;;;;;;5072307;28;20214;-66
2023/12/06 08:21:12;;;;;;;15.70;15.00;;;6.50;99.90;;;;;;5072357;28;20222;-67
2023/12/06 08:23:39;;;;;;;14.90;14.30;;;6.40;99.90;;;;;;5072472;28;20678;-68
2023/12/06 08:26:07;;;;;;;15.10;14.50;;;6.40;99.90;;;;;;5071954;28;20231;-68
2023/12/06 08:28:34;;;;;;;15.30;14.70;;;6.40;99.90;;;;;;5072459;28;20227;-67
2023/12/06 08:31:01;;;;;;;14.30;13.80;;;6.40;99.90;;;;;;5072299;28;20214;-66
2023/12/06 08:33:27;;;;;;;14.83;14.33;;;6.40;99.90;;;;;;5073437;28;20284;-67
2023/12/06 08:35:54;;;;;;;14.13;13.60;;;6.40;99.90;;;;;;5071780;28;20230;-67
2023/12/06 08:38:21;;;;;;;15.00;14.43;;;6.40;99.90;;;;;;5071656;28;20205;-66
2023/12/06 08:40:48;;;;;;;14.13;13.53;;;6.30;99.90;;;;;;5071356;28;20310;-66
2023/12/06 08:43:16;;;;;;;15.10;14.50;;;6.40;99.90;;;;;;5071887;28;20243;-66
2023/12/06 08:45:43;;;;;;;14.37;13.77;;;6.40;99.90;;;;;;5072538;28;20714;-66
2023/12/06 08:48:10;;;;;;;13.60;13.10;;;6.40;99.90;;;;;;5075747;28;20284;-68
2023/12/06 08:50:36;;;;;;;13.37;12.87;;;6.40;99.90;;;;;;5076311;28;20203;-66
2023/12/06 08:53:03;;;;;;;13.60;13.10;;;6.40;99.90;;;;;;5075891;28;20221;-67
2023/12/06 08:55:30;;;;;;;13.67;13.17;;;6.40;99.90;;;;;;5076476;28;20277;-68
2023/12/06 08:57:57;;;;;;;13.43;12.93;;;6.40;99.90;;;;;;5075760;28;20639;-68
2023/12/06 09:00:25;;;;;;;13.53;13.03;;;6.50;99.90;;;;;;5075700;28;20215;-67
2023/12/06 09:02:51;;;;;;;13.33;12.83;;;6.40;99.90;;;;;;5075574;28;20203;-68
2023/12/06 09:05:18;;;;;;;13.80;13.30;;;6.50;99.90;;;;;;5067236;28;20255;-70
2023/12/06 09:07:45;;;;;;;13.43;12.90;;;6.50;99.90;;;;;;5075482;28;20262;-67
2023/12/06 09:10:12;;;;;;;13.23;12.73;;;6.60;99.90;;;;;;5075511;28;20230;-67
2023/12/06 09:12:39;;;;;;;13.83;13.33;;;6.60;99.90;;;;;;5075694;28;20211;-67
2023/12/06 09:15:06;;;;;;;13.97;13.47;;;6.50;99.90;;;;;;5074971;28;20215;-66
2023/12/06 09:17:34;;;;;;;13.57;12.97;;;6.60;99.90;;;;;;5075362;28;20608;-68
2023/12/06 09:20:01;;;;;;;13.67;13.17;;;6.60;99.90;;;;;;5075137;28;20282;-68
2023/12/06 09:22:28;;;;;;;13.40;12.90;;;6.30;99.90;;;;;;5075049;28;20211;-67
2023/12/06 09:24:54;;;;;;;13.20;12.70;;;6.60;99.90;;;;;;5075265;28;20208;-69
2023/12/06 09:27:21;;;;;;;12.57;12.07;;;6.60;99.90;;;;;;5075283;28;20235;-68
2023/12/06 09:29:48;;;;;;;12.50;12.00;;;6.60;99.90;;;;;;5075039;28;20328;-66
2023/12/06 09:32:14;;;;;;;12.77;12.27;;;6.60;99.90;;;;;;5074916;28;20215;-66
2023/12/06 09:34:42;;;;;;;13.30;12.80;;;6.60;99.90;;;;;;5075409;28;20200;-67
2023/12/06 09:37:09;;;;;;;12.43;11.97;;;6.60;99.90;;;;;;5075741;28;20219;-68
2023/12/06 09:39:36;;;;;;;12.67;12.17;;;6.70;99.90;;;;;;5075202;28;20218;-66
2023/12/06 09:42:04;;;;;;;12.50;12.00;;;6.70;99.90;;;;;;5075541;28;20242;-67
2023/12/06 09:44:31;;;;;;;13.00;12.50;;;6.70;99.90;;;;;;5075024;28;20207;-67
2023/12/06 09:47:00;;;;;;;12.70;12.20;;;6.80;99.90;;;;;;5076380;28;20661;-66
2023/12/06 09:49:27;;;;;;;12.13;11.73;;;6.80;99.90;;;;;;5077355;28;20272;-68
2023/12/06 09:52:00;;;;;;;12.70;12.20;;;6.80;99.90;;;;;;5077250;28;20215;-68
2023/12/06 09:54:27;;;;;;;12.67;12.17;;;6.80;99.90;;;;;;5076677;28;20219;-66
2023/12/06 09:56:53;;;;;;;13.03;12.53;;;6.80;99.90;;;;;;5075378;28;20223;-67
2023/12/06 09:59:20;;;;;;;12.93;12.43;;;6.80;99.90;;;;;;5074698;28;20199;-68
2023/12/06 10:01:47;;;;;;;12.83;12.33;;;6.80;99.90;;;;;;5075131;28;20215;-66
2023/12/06 10:04:14;;;;;;;12.17;11.77;;;6.80;99.90;;;;;;5074916;28;20298;-67
2023/12/06 10:06:43;;;;;;;12.97;12.47;;;6.80;99.90;;;;;;5075295;28;20223;-67
2023/12/06 10:09:11;;;;;;;13.40;12.90;;;6.80;99.90;;;;;;5074457;28;20230;-67
2023/12/06 10:11:38;;;;;;;12.50;12.00;;;6.80;99.90;;;;;;5074390;28;20206;-67
2023/12/06 10:14:04;;;;;;;12.93;12.43;;;6.80;99.90;;;;;;5074409;28;20589;-67
2023/12/06 10:16:31;;;;;;;12.53;12.03;;;6.80;99.90;;;;;;5074235;28;20226;-67
2023/12/06 10:18:58;;;;;;;12.20;11.70;;;6.80;99.90;;;;;;5074017;28;20286;-68
2023/12/06 10:21:25;;;;;;;12.60;12.10;;;6.80;99.90;;;;;;5073667;28;20211;-68
2023/12/06 10:23:57;;;;;;;12.80;12.30;;;6.90;99.90;;;;;;5073702;28;20207;-68
2023/12/06 10:26:26;;;;;;;11.73;11.33;;;6.80;99.90;;;;;;5066449;28;20579;-68
2023/12/06 10:28:54;;;;;;;12.40;11.97;;;6.90;99.90;;;;;;5074046;28;20621;-67
2023/12/06 10:31:21;;;;;;;12.60;12.10;;;6.90;99.90;;;;;;5074601;28;20199;-68
2023/12/06 10:33:53;;;;;;;12.60;12.13;;;6.90;99.90;;;;;;5074715;28;20203;-68
2023/12/06 10:36:21;;;;;;;12.10;11.60;;;7.00;99.90;;;;;;5066234;28;20223;-68
2023/12/06 10:38:48;;;;;;;13.23;12.73;;;7.00;99.90;;;;;;5078062;28;20229;-68
2023/12/06 10:41:17;;;;;;;12.00;11.60;;;7.00;99.90;;;;;;5080875;28;20211;-66
2023/12/06 10:43:45;;;;;;;11.37;10.97;;;7.00;99.90;;;;;;5083029;28;20242;-68
2023/12/06 10:46:13;;;;;;;11.50;11.10;;;7.00;99.90;;;;;;5081445;28;20242;-68
2023/12/06 10:48:40;;;;;;;12.50;12.00;;;7.00;99.90;;;;;;5081861;28;20237;-66
2023/12/06 10:51:07;;;;;;;11.70;11.30;;;7.00;99.90;;;;;;5081495;28;20207;-66
2023/12/06 10:53:34;;;;;;;12.10;11.70;;;7.00;99.90;;;;;;5083834;28;20233;-67
2023/12/06 10:56:01;;;;;;;12.17;11.77;;;7.00;99.90;;;;;;5078973;28;20238;-68
2023/12/06 10:58:28;;;;;;;12.40;11.90;;;7.10;99.90;;;;;;5075215;28;20218;-67
2023/12/06 11:00:58;;;;;;;12.00;11.60;;;7.10;99.90;;;;;;5074273;28;20207;-67
2023/12/06 11:03:25;;;;;;;11.63;11.23;;;7.10;99.90;;;;;;5073819;28;20207;-68
2023/12/06 11:05:56;;;;;;;11.83;11.43;;;7.10;99.90;;;;;;5074112;28;20630;-66
2023/12/06 11:08:44;;;;;;;11.70;11.30;;;7.10;99.90;;;;;;5066142;28;20234;-66
2023/12/06 11:11:42;;;;;;;11.97;11.57;;;7.10;99.90;;;;;;5072598;28;20210;-69
2023/12/06 11:14:33;;;;;;;12.40;11.90;;;7.00;99.90;;;;;;5073089;28;20203;-70
2023/12/06 11:17:13;;;;;;;11.67;11.27;;;7.10;99.90;;;;;;5073197;28;20725;-66
2023/12/06 11:19:40;;;;;;;12.00;11.60;;;7.00;99.90;;;;;;5072983;28;20248;-68
2023/12/06 11:22:08;;;;;;;13.20;12.60;;;7.00;99.90;;;;;;5074308;28;20706;-68
2023/12/06 11:24:35;;;;;;;42.90;39.80;;;7.10;99.90;;;;;;5072823;28;20211;-67
2023/12/06 11:27:03;;;;;;;39.43;36.57;;;7.10;99.90;;;;;;5072492;28;20705;-66
2023/12/06 11:29:31;;;;;;;25.20;23.67;;;7.00;99.90;;;;;;5072298;28;20223;-68
2023/12/06 11:31:59;;;;;;;18.67;17.67;;;7.10;99.90;;;;;;5072822;28;20261;-67
2023/12/06 11:34:36;;;;;;;12.57;12.07;;;7.20;99.90;;;;;;5072714;28;20294;-67
2023/12/06 11:37:07;;;;;;;12.40;11.90;;;7.20;99.90;;;;;;5072144;28;20262;-67
2023/12/06 11:39:34;;;;;;;12.17;11.77;;;7.10;99.90;;;;;;5072009;28;20694;-69
2023/12/06 11:42:01;;;;;;;11.53;11.13;;;7.20;99.90;;;;;;5072231;28;20662;-68
2023/12/06 11:44:27;;;;;;;11.77;11.33;;;7.20;99.90;;;;;;5073167;28;20217;-67
2023/12/06 11:46:56;;;;;;;12.10;11.70;;;7.20;99.90;;;;;;5072814;28;20710;-67
2023/12/06 11:49:23;;;;;;;12.13;11.63;;;7.20;99.90;;;;;;5072646;28;20640;-66
2023/12/06 11:51:55;;;;;;;11.70;11.30;;;7.20;99.90;;;;;;5072842;28;20631;-69
2023/12/06 11:54:23;;;;;;;11.80;11.40;;;7.20;99.90;;;;;;5072578;28;20256;-68
2023/12/06 11:56:49;;;;;;;12.33;11.90;;;7.20;99.90;;;;;;5072336;28;20227;-65
2023/12/06 11:59:16;;;;;;;11.73;11.33;;;7.20;99.90;;;;;;5071636;28;20215;-68
2023/12/06 12:01:43;;;;;;;11.90;11.50;;;7.20;99.90;;;;;;5072181;28;20211;-67
2023/12/06 12:04:11;;;;;;;12.43;11.93;;;7.30;99.90;;;;;;5071506;28;20214;-67
2023/12/06 12:06:37;;;;;;;11.80;11.40;;;7.30;99.90;;;;;;5071786;28;20231;-67
2023/12/06 12:09:06;;;;;;;11.63;11.23;;;7.30;99.90;;;;;;5071533;28;20231;-68
2023/12/06 12:11:33;;;;;;;11.97;11.50;;;7.20;99.90;;;;;;5072633;28;20207;-68
2023/12/06 12:14:00;;;;;;;11.80;11.40;;;7.30;99.90;;;;;;5072495;28;20563;-67
2023/12/06 12:16:27;;;;;;;11.73;11.33;;;7.20;99.90;;;;;;5072137;28;20289;-67
2023/12/06 12:18:56;;;;;;;12.40;11.90;;;7.20;99.90;;;;;;5071549;28;20693;-68
2023/12/06 12:21:28;;;;;;;11.90;11.50;;;7.30;99.90;;;;;;5072303;28;20257;-68
2023/12/06 12:23:57;;;;;;;11.70;11.30;;;7.30;99.90;;;;;;5077117;28;20215;-67
2023/12/06 12:26:25;;;;;;;12.00;11.60;;;7.40;99.90;;;;;;5076382;28;20644;-66
2023/12/06 12:28:52;;;;;;;11.70;11.30;;;7.40;99.90;;;;;;5075679;28;20234;-67
2023/12/06 12:31:22;;;;;;;11.77;11.33;;;7.40;99.90;;;;;;5075977;28;20665;-67
2023/12/06 12:33:50;;;;;;;11.30;10.90;;;7.50;99.90;;;;;;5076563;28;20585;-68
2023/12/06 12:36:17;;;;;;;11.87;11.47;;;7.50;99.90;;;;;;5076394;28;20235;-68